Time;durP1;ratioP1;P1;durP2;ratioP2;P2;SDS_P1;SDS_P2;PMS_P1;PMS_P2;Temp;Humidity;BMP_temperature;BMP_pressure;BME280_temperature;BME280_humidity;BME280_pressure;Samples;Min_cycle;Max_cycle;Signal;HPM_P1;HPM_P2
2024/03/14 00:01:44;;;;;;;1.52;1.00;;;7.80;99.90;;;;;;5024812;28;20147;-64
2024/03/14 00:04:14;;;;;;;2.17;1.08;;;7.80;99.90;;;;;;5026511;28;20052;-64
2024/03/14 00:06:42;;;;;;;3.33;0.90;;;7.80;99.90;;;;;;5020272;28;20665;-64
2024/03/14 00:09:10;;;;;;;2.55;0.95;;;7.80;99.90;;;;;;5022573;28;20049;-64
2024/03/14 00:11:37;;;;;;;2.30;1.17;;;7.70;99.90;;;;;;5022350;28;20100;-64
2024/03/14 00:14:04;;;;;;;1.48;1.00;;;7.70;99.90;;;;;;5025086;28;20056;-64
2024/03/14 00:16:31;;;;;;;3.03;1.10;;;7.60;99.90;;;;;;5024783;28;20057;-63
2024/03/14 00:18:59;;;;;;;3.08;1.25;;;7.50;99.90;;;;;;5025652;28;20049;-64
2024/03/14 00:21:26;;;;;;;3.50;1.30;;;7.50;99.90;;;;;;5023741;28;20041;-64
2024/03/14 00:23:54;;;;;;;1.27;1.17;;;7.50;99.90;;;;;;5023210;28;20668;-64
2024/03/14 00:26:21;;;;;;;1.75;1.10;;;7.50;99.90;;;;;;5021521;28;20053;-64
2024/03/14 00:28:48;;;;;;;2.80;1.00;;;7.50;99.90;;;;;;5017376;28;20085;-64
2024/03/14 00:31:15;;;;;;;3.75;1.15;;;7.40;99.90;;;;;;5018007;23;20073;-61
2024/03/14 00:33:43;;;;;;;1.10;1.00;;;7.40;99.90;;;;;;5005811;28;20057;-61
2024/03/14 00:36:14;;;;;;;2.15;0.90;;;7.30;99.90;;;;;;5003440;28;20050;-61
2024/03/14 00:38:41;;;;;;;3.15;1.95;;;7.30;99.90;;;;;;5006333;28;20490;-61
2024/03/14 00:41:13;;;;;;;5.72;2.40;;;7.30;99.90;;;;;;4988435;28;20598;-61
2024/03/14 00:43:39;;;;;;;2.05;1.85;;;7.40;99.90;;;;;;4989283;28;20120;-61
2024/03/14 00:46:06;;;;;;;1.40;1.30;;;7.40;99.90;;;;;;4988410;28;20077;-61
2024/03/14 00:48:33;;;;;;;3.47;1.40;;;7.30;99.90;;;;;;4987984;28;20085;-61
2024/03/14 00:51:01;;;;;;;2.88;1.30;;;7.30;99.90;;;;;;4986291;28;20053;-61
2024/03/14 00:53:28;;;;;;;3.63;1.20;;;7.20;99.90;;;;;;4987691;28;20054;-61
2024/03/14 00:55:55;;;;;;;1.40;1.20;;;7.20;99.90;;;;;;4987344;28;20058;-61
2024/03/14 00:58:21;;;;;;;1.90;1.13;;;7.10;99.90;;;;;;4989285;28;20454;-61
2024/03/14 01:00:50;;;;;;;2.80;1.20;;;7.10;99.90;;;;;;4986830;28;20081;-61
2024/03/14 01:03:17;;;;;;;2.17;0.90;;;7.00;99.90;;;;;;4983195;28;20468;-61
2024/03/14 01:05:44;;;;;;;1.02;0.90;;;7.00;99.90;;;;;;4989398;28;20053;-61
2024/03/14 01:08:11;;;;;;;1.35;1.05;;;6.90;99.90;;;;;;4988794;28;20170;-61
2024/03/14 01:10:38;;;;;;;3.75;1.20;;;6.90;99.90;;;;;;4985542;28;20387;-61
2024/03/14 01:13:08;;;;;;;1.40;0.85;;;6.80;99.90;;;;;;4988522;28;20451;-61
2024/03/14 01:15:35;;;;;;;2.97;1.10;;;6.80;99.90;;;;;;4988460;28;20054;-61
2024/03/14 01:18:02;;;;;;;3.13;1.20;;;6.80;99.90;;;;;;4990070;28;20494;-61
2024/03/14 01:20:29;;;;;;;3.55;1.20;;;6.70;99.90;;;;;;4988908;28;20050;-61
2024/03/14 01:22:56;;;;;;;2.90;1.05;;;6.70;99.90;;;;;;4988829;28;20475;-61
2024/03/14 01:25:24;;;;;;;1.52;1.00;;;6.70;99.90;;;;;;4987199;28;20567;-61
2024/03/14 01:27:51;;;;;;;1.60;1.10;;;6.60;99.90;;;;;;4989645;28;20641;-61
2024/03/14 01:30:18;;;;;;;2.78;0.90;;;6.60;99.90;;;;;;4986696;28;20058;-61
2024/03/14 01:32:45;;;;;;;0.95;0.93;;;6.50;99.90;;;;;;4986245;28;20046;-61
2024/03/14 01:35:12;;;;;;;2.33;1.02;;;6.40;99.90;;;;;;4987435;28;20058;-61
2024/03/14 01:37:39;;;;;;;1.58;0.90;;;6.40;99.90;;;;;;4985594;28;20065;-61
2024/03/14 01:40:06;;;;;;;2.97;1.00;;;6.50;99.90;;;;;;4987391;28;20133;-61
2024/03/14 01:42:33;;;;;;;2.05;1.10;;;6.50;99.90;;;;;;4988606;28;20046;-61
2024/03/14 01:45:05;;;;;;;1.30;0.70;;;6.50;99.90;;;;;;4981281;28;20206;-61
2024/03/14 01:47:32;;;;;;;1.15;1.05;;;6.40;99.90;;;;;;4988631;28;20116;-60
2024/03/14 01:50:01;;;;;;;3.75;1.20;;;6.30;99.90;;;;;;4987262;28;20739;-61
2024/03/14 01:52:28;;;;;;;1.23;1.13;;;6.30;99.90;;;;;;4988474;28;20073;-61
2024/03/14 01:54:56;;;;;;;1.23;0.90;;;6.30;99.90;;;;;;4986456;28;20506;-61
2024/03/14 01:57:23;;;;;;;1.23;0.95;;;6.30;99.90;;;;;;4988889;28;20046;-61
2024/03/14 01:59:53;;;;;;;1.42;0.90;;;6.40;99.90;;;;;;4985466;28;20042;-61
2024/03/14 02:02:23;;;;;;;5.18;1.30;;;6.40;99.90;;;;;;4986564;28;20149;-61
2024/03/14 02:05:15;;;;;;;1.17;1.08;;;6.30;99.90;;;;;;4985541;28;20647;-61
2024/03/14 02:07:42;;;;;;;1.67;1.10;;;6.30;99.90;;;;;;4987331;28;20062;-61
2024/03/14 02:10:13;;;;;;;1.05;0.85;;;6.30;99.90;;;;;;4983903;28;20054;-61
2024/03/14 02:12:41;;;;;;;1.80;1.05;;;6.30;99.90;;;;;;4982934;28;20089;-61
2024/03/14 02:15:08;;;;;;;1.25;0.93;;;6.30;99.90;;;;;;4986612;28;20559;-61
2024/03/14 02:17:36;;;;;;;4.03;1.10;;;6.20;99.90;;;;;;4986205;28;20058;-61
2024/03/14 02:20:04;;;;;;;2.08;1.00;;;6.20;99.90;;;;;;4987025;28;20366;-61
2024/03/14 02:22:31;;;;;;;3.45;1.27;;;6.20;99.90;;;;;;4984778;28;20146;-61
2024/03/14 02:24:58;;;;;;;4.70;1.00;;;6.10;99.90;;;;;;4985864;28;20053;-61
2024/03/14 02:27:25;;;;;;;1.10;1.00;;;6.10;99.90;;;;;;4987300;28;20612;-61
2024/03/14 02:29:52;;;;;;;3.28;1.25;;;6.00;99.90;;;;;;4986910;28;20094;-61
2024/03/14 02:32:18;;;;;;;2.78;1.10;;;5.90;99.90;;;;;;4985948;28;20050;-61
2024/03/14 02:34:45;;;;;;;3.50;1.20;;;6.00;99.90;;;;;;4985973;28;20506;-60
2024/03/14 02:37:12;;;;;;;3.40;1.13;;;6.00;99.90;;;;;;4985813;28;20046;-61
2024/03/14 02:39:39;;;;;;;2.30;0.90;;;6.10;99.90;;;;;;4986204;28;20097;-60
2024/03/14 02:42:06;;;;;;;1.45;1.05;;;6.00;99.90;;;;;;4984496;28;20194;-61
2024/03/14 02:44:33;;;;;;;5.72;1.58;;;6.00;99.90;;;;;;4987824;28;20058;-61
2024/03/14 02:46:59;;;;;;;6.10;1.70;;;6.00;99.90;;;;;;4985431;28;20496;-61
2024/03/14 02:49:27;;;;;;;2.28;1.30;;;5.90;99.90;;;;;;4985648;28;20145;-61
2024/03/14 02:51:54;;;;;;;3.88;1.08;;;5.90;99.90;;;;;;4986012;28;20109;-61
2024/03/14 02:54:21;;;;;;;2.08;1.13;;;5.80;99.90;;;;;;4986637;28;20042;-61
2024/03/14 02:56:49;;;;;;;7.75;1.30;;;5.80;99.90;;;;;;4985065;28;20050;-61
2024/03/14 02:59:17;;;;;;;3.22;1.00;;;5.80;99.90;;;;;;4986783;28;20123;-61
2024/03/14 03:01:44;;;;;;;2.65;1.08;;;5.80;99.90;;;;;;4983647;28;20105;-62
2024/03/14 03:04:10;;;;;;;2.35;1.15;;;5.80;99.90;;;;;;4984580;28;20046;-60
2024/03/14 03:06:54;;;;;;;5.15;1.60;;;5.80;99.90;;;;;;4985354;28;20106;-61
2024/03/14 03:09:21;;;;;;;6.07;1.55;;;5.80;99.90;;;;;;4984503;28;20481;-61
2024/03/14 03:11:49;;;;;;;2.17;1.50;;;5.90;99.90;;;;;;4986226;28;20422;-60
2024/03/14 03:14:16;;;;;;;2.47;1.10;;;5.70;99.90;;;;;;4986611;28;20131;-61
2024/03/14 03:16:44;;;;;;;3.78;1.23;;;5.70;99.90;;;;;;4985877;28;20054;-61
2024/03/14 03:19:11;;;;;;;3.60;1.35;;;5.60;99.90;;;;;;4986265;28;20068;-61
2024/03/14 03:21:38;;;;;;;4.82;1.73;;;5.70;99.90;;;;;;4985995;28;20054;-61
2024/03/14 03:24:08;;;;;;;5.75;1.58;;;5.70;99.90;;;;;;4985043;28;20061;-61
2024/03/14 03:26:35;;;;;;;;;;;5.70;99.90;;;;;;4986413;28;20149;-60
2024/03/14 03:29:02;;;;;;;2.83;1.45;;;5.70;99.90;;;;;;4984383;28;19929;-61
2024/03/14 03:31:29;;;;;;;3.65;1.60;;;5.70;99.90;;;;;;4985292;28;20066;-60
2024/03/14 03:33:56;;;;;;;2.58;1.58;;;5.70;99.90;;;;;;4984337;28;20077;-60
2024/03/14 03:36:23;;;;;;;4.05;1.58;;;5.70;99.90;;;;;;4985744;28;20070;-61
2024/03/14 03:38:51;;;;;;;4.65;1.88;;;5.80;99.90;;;;;;4986746;28;20450;-61
2024/03/14 03:41:23;;;;;;;5.60;3.08;;;5.80;99.90;;;;;;4981710;28;20142;-61
2024/03/14 03:43:50;;;;;;;12.18;7.45;;;5.80;99.90;;;;;;4981830;28;20050;-61
2024/03/14 03:46:16;;;;;;;13.48;7.85;;;5.80;99.90;;;;;;4968383;28;20046;-61
2024/03/14 03:48:43;;;;;;;8.48;2.88;;;5.80;99.90;;;;;;4982901;28;20116;-61
2024/03/14 03:51:13;;;;;;;4.88;2.30;;;5.70;99.90;;;;;;4983692;28;20505;-61
2024/03/14 03:53:40;;;;;;;7.93;2.30;;;5.80;99.90;;;;;;4987992;28;20061;-61
2024/03/14 03:56:07;;;;;;;8.43;2.30;;;5.80;99.90;;;;;;4980339;28;20109;-61
2024/03/14 03:58:34;;;;;;;3.35;2.05;;;5.80;99.90;;;;;;4987357;28;20057;-61
2024/03/14 04:01:12;;;;;;;4.82;2.03;;;5.80;99.90;;;;;;4984698;28;20050;-61
2024/03/14 04:03:40;;;;;;;5.30;2.38;;;5.80;99.90;;;;;;4980842;28;20053;-61
2024/03/14 04:06:12;;;;;;;4.15;2.03;;;5.80;99.90;;;;;;4984652;28;20057;-61
2024/03/14 04:08:39;;;;;;;3.63;1.50;;;5.80;99.90;;;;;;4983212;28;20058;-61
2024/03/14 04:11:09;;;;;;;6.15;1.70;;;5.80;99.90;;;;;;4984581;28;20100;-61
2024/03/14 04:13:36;;;;;;;4.38;1.90;;;5.90;99.90;;;;;;4989447;28;20050;-61
2024/03/14 04:16:06;;;;;;;4.28;1.50;;;5.90;99.90;;;;;;4984861;28;20054;-61
2024/03/14 04:18:34;;;;;;;2.97;1.50;;;5.90;99.90;;;;;;4990585;28;20519;-61
2024/03/14 04:21:05;;;;;;;2.35;1.40;;;5.90;99.90;;;;;;4990276;28;20112;-61
2024/03/14 04:23:33;;;;;;;4.00;1.33;;;5.90;99.90;;;;;;4990176;28;20050;-61
2024/03/14 04:26:02;;;;;;;2.38;1.60;;;5.90;99.90;;;;;;4986921;28;20050;-61
2024/03/14 04:28:29;;;;;;;3.77;1.27;;;5.90;99.90;;;;;;4986408;28;20065;-61
2024/03/14 04:30:56;;;;;;;1.48;1.35;;;5.90;99.90;;;;;;4988188;28;20101;-61
2024/03/14 04:33:23;;;;;;;4.05;1.75;;;5.90;99.90;;;;;;4985237;28;20096;-62
2024/03/14 04:35:52;;;;;;;2.28;1.35;;;6.00;99.90;;;;;;4988456;28;20081;-62
2024/03/14 04:38:22;;;;;;;2.95;1.27;;;6.00;99.90;;;;;;4988779;28;20224;-62
2024/03/14 04:40:48;;;;;;;3.83;1.67;;;6.00;99.90;;;;;;4968785;28;20069;-62
2024/03/14 04:43:15;;;;;;;1.90;1.30;;;6.10;99.90;;;;;;4972608;28;20089;-62
2024/03/14 04:45:42;;;;;;;5.20;1.60;;;6.10;99.90;;;;;;4989858;28;20134;-62
2024/03/14 04:48:09;;;;;;;3.63;1.60;;;6.10;99.90;;;;;;4989406;28;20046;-62
2024/03/14 04:50:36;;;;;;;1.92;1.25;;;6.10;99.90;;;;;;4987976;28;20054;-62
2024/03/14 04:53:04;;;;;;;4.68;1.52;;;6.10;99.90;;;;;;4987951;28;20066;-62
2024/03/14 04:55:32;;;;;;;3.50;1.50;;;6.10;99.90;;;;;;4989059;28;20053;-62
2024/03/14 04:57:58;;;;;;;3.42;1.70;;;6.10;99.90;;;;;;4986244;28;20574;-62
2024/03/14 05:00:25;;;;;;;3.38;1.40;;;6.10;99.90;;;;;;4988651;28;20042;-61
2024/03/14 05:02:55;;;;;;;3.92;1.52;;;6.10;99.90;;;;;;4988785;28;20046;-62
2024/03/14 05:05:22;;;;;;;4.50;1.73;;;6.10;99.90;;;;;;4985433;28;20042;-62
2024/03/14 05:07:50;;;;;;;2.13;1.48;;;6.10;99.90;;;;;;4988149;28;20491;-61
2024/03/14 05:10:20;;;;;;;5.68;2.13;;;6.00;99.90;;;;;;4987879;28;20046;-61
2024/03/14 05:12:48;;;;;;;5.22;1.63;;;6.00;99.90;;;;;;4985074;28;20054;-61
2024/03/14 05:15:15;;;;;;;6.55;1.70;;;6.00;99.90;;;;;;4986406;28;20077;-61
2024/03/14 05:17:44;;;;;;;6.88;1.73;;;5.90;99.90;;;;;;4989248;28;20065;-62
2024/03/14 05:20:13;;;;;;;3.25;1.48;;;5.90;99.90;;;;;;4988398;28;20051;-61
2024/03/14 05:22:41;;;;;;;4.47;1.67;;;5.90;99.90;;;;;;4988561;28;20061;-61
2024/03/14 05:25:11;;;;;;;4.65;2.03;;;5.90;99.90;;;;;;4987814;28;20077;-61
2024/03/14 05:27:42;;;;;;;6.22;1.50;;;5.90;99.90;;;;;;4989665;28;20050;-62
2024/03/14 05:30:12;;;;;;;4.10;2.22;;;5.80;99.90;;;;;;4987582;28;20058;-61
2024/03/14 05:32:40;;;;;;;2.75;1.70;;;5.80;99.90;;;;;;4986817;28;20051;-61
2024/03/14 05:35:07;;;;;;;3.38;2.08;;;5.80;99.90;;;;;;4988612;28;20141;-61
2024/03/14 05:37:33;;;;;;;2.53;1.70;;;5.80;99.90;;;;;;4989417;28;20471;-61
2024/03/14 05:40:00;;;;;;;2.40;1.80;;;5.80;99.90;;;;;;4982098;28;20137;-61
2024/03/14 05:42:27;;;;;;;3.90;1.70;;;5.70;99.90;;;;;;4986079;28;20112;-61
2024/03/14 05:44:55;;;;;;;2.88;1.58;;;5.80;99.90;;;;;;4988217;28;20426;-61
2024/03/14 05:47:24;;;;;;;1.83;1.60;;;5.70;99.90;;;;;;4983701;28;20447;-61
2024/03/14 05:49:51;;;;;;;2.60;2.20;;;5.80;99.90;;;;;;4983035;28;20138;-61
2024/03/14 05:52:18;;;;;;;4.90;2.50;;;5.80;99.90;;;;;;4984261;28;20046;-62
2024/03/14 05:54:45;;;;;;;3.80;2.33;;;5.80;99.90;;;;;;4988888;28;20057;-62
2024/03/14 05:57:14;;;;;;;6.15;1.90;;;5.80;99.90;;;;;;4989377;28;20058;-62
2024/03/14 05:59:41;;;;;;;6.00;1.87;;;5.70;99.90;;;;;;4988862;28;20046;-62
2024/03/14 06:02:08;;;;;;;8.15;2.13;;;5.70;99.90;;;;;;4980254;28;20451;-62
2024/03/14 06:04:35;;;;;;;2.38;2.13;;;5.70;99.90;;;;;;4989686;28;20062;-62
2024/03/14 06:07:01;;;;;;;3.00;2.40;;;5.70;99.90;;;;;;4983020;28;20311;-62
2024/03/14 06:09:42;;;;;;;5.93;2.78;;;5.70;99.90;;;;;;4988187;28;20527;-62
2024/03/14 06:12:09;;;;;;;;;;;5.70;99.90;;;;;;4986278;28;20080;-61
2024/03/14 06:14:38;;;;;;;1.63;1.45;;;5.70;99.90;;;;;;4989372;28;19928;-62
2024/03/14 06:17:06;;;;;;;4.07;1.80;;;5.70;99.90;;;;;;4987854;28;20085;-62
2024/03/14 06:19:32;;;;;;;4.15;1.98;;;5.60;99.90;;;;;;4984018;28;20054;-62
2024/03/14 06:21:59;;;;;;;3.95;2.55;;;5.60;99.90;;;;;;4984486;28;20104;-62
2024/03/14 06:24:26;;;;;;;3.05;2.00;;;5.70;99.90;;;;;;4988308;28;20043;-62
2024/03/14 06:26:53;;;;;;;4.22;1.77;;;5.70;99.90;;;;;;4984475;28;20047;-62
2024/03/14 06:29:22;;;;;;;3.05;2.30;;;5.80;99.90;;;;;;4986338;28;20134;-65
2024/03/14 06:31:50;;;;;;;4.15;2.03;;;5.90;99.90;;;;;;4983071;28;20054;-65
2024/03/14 06:34:17;;;;;;;5.28;2.30;;;5.90;99.90;;;;;;4977794;28;20051;-65
2024/03/14 06:36:44;;;;;;;3.67;2.40;;;5.90;99.90;;;;;;4986237;28;20057;-65
2024/03/14 06:39:11;;;;;;;5.38;2.05;;;5.90;99.90;;;;;;4983563;28;20068;-65
2024/03/14 06:41:38;;;;;;;6.18;2.50;;;6.00;99.90;;;;;;4982880;28;20096;-65
2024/03/14 06:44:06;;;;;;;4.65;2.30;;;6.00;99.90;;;;;;4984218;28;20047;-65
2024/03/14 06:46:34;;;;;;;6.32;1.85;;;6.00;99.90;;;;;;4985609;28;20042;-65
2024/03/14 06:49:02;;;;;;;4.78;2.08;;;6.00;99.90;;;;;;4983251;28;20061;-65
2024/03/14 06:51:29;;;;;;;4.63;1.92;;;6.10;99.90;;;;;;4981053;28;20137;-65
2024/03/14 06:53:56;;;;;;;6.20;2.22;;;6.20;99.90;;;;;;4984154;28;20081;-65
2024/03/14 06:56:27;;;;;;;2.33;1.80;;;6.20;99.90;;;;;;4981160;28;20058;-65
2024/03/14 06:58:54;;;;;;;5.57;2.45;;;6.30;99.90;;;;;;4982472;28;20046;-61
2024/03/14 07:01:21;;;;;;;6.05;2.47;;;6.30;99.90;;;;;;4977481;28;20357;-63
2024/03/14 07:03:48;;;;;;;3.50;2.08;;;6.30;99.90;;;;;;4985969;28;20047;-62
2024/03/14 07:06:14;;;;;;;8.18;3.25;;;6.40;99.90;;;;;;4981545;28;20141;-62
2024/03/14 07:08:42;;;;;;;4.90;2.17;;;6.50;99.90;;;;;;4986725;28;20053;-63
2024/03/14 07:11:11;;;;;;;3.20;2.20;;;6.60;99.90;;;;;;4980044;28;20632;-62
2024/03/14 07:13:39;;;;;;;3.95;2.40;;;6.60;99.90;;;;;;4981760;28;20050;-62
2024/03/14 07:16:09;;;;;;;4.32;2.38;;;6.70;99.90;;;;;;4979861;28;20069;-62
2024/03/14 07:18:36;;;;;;;2.83;2.25;;;6.80;99.90;;;;;;4980330;28;20054;-61
2024/03/14 07:21:04;;;;;;;6.28;2.53;;;6.90;99.90;;;;;;4981322;28;20130;-59
2024/03/14 07:23:33;;;;;;;3.13;2.55;;;7.00;99.90;;;;;;4986535;28;20492;-60
2024/03/14 07:26:02;;;;;;;7.15;2.60;;;7.10;99.90;;;;;;4988451;28;20129;-60
2024/03/14 07:28:31;;;;;;;3.42;2.92;;;7.10;99.90;;;;;;4986441;28;20073;-60
2024/03/14 07:30:58;;;;;;;3.38;2.78;;;7.20;99.90;;;;;;4988192;28;20054;-60
2024/03/14 07:33:26;;;;;;;4.65;2.78;;;7.40;99.90;;;;;;4985998;28;20418;-60
2024/03/14 07:35:54;;;;;;;5.65;3.20;;;7.40;99.90;;;;;;4988296;28;20046;-60
2024/03/14 07:38:27;;;;;;;8.27;3.33;;;7.50;99.90;;;;;;4988049;28;20137;-60
2024/03/14 07:40:55;;;;;;;3.65;2.88;;;7.70;99.90;;;;;;4988420;28;20438;-60
2024/03/14 07:43:22;;;;;;;4.00;3.35;;;7.80;99.90;;;;;;4988211;28;20470;-60
2024/03/14 07:45:49;;;;;;;8.30;3.10;;;7.90;99.90;;;;;;4987732;28;20050;-61
2024/03/14 07:48:17;;;;;;;5.25;3.75;;;8.00;99.90;;;;;;4987601;28;20042;-61
2024/03/14 07:50:45;;;;;;;7.90;5.30;;;8.10;99.90;;;;;;4988271;28;20101;-62
2024/03/14 07:53:12;;;;;;;9.05;6.20;;;8.20;99.90;;;;;;4985872;28;20138;-62
2024/03/14 07:55:40;;;;;;;10.13;7.38;;;8.20;99.90;;;;;;4987524;28;20061;-62
2024/03/14 07:58:08;;;;;;;12.57;7.35;;;8.30;99.90;;;;;;4988047;28;20137;-62
2024/03/14 08:00:36;;;;;;;13.15;7.35;;;8.30;99.90;;;;;;4987604;28;20056;-62
2024/03/14 08:03:04;;;;;;;10.35;7.13;;;8.30;99.90;;;;;;4986484;28;20487;-62
2024/03/14 08:05:31;;;;;;;11.30;6.88;;;8.40;99.90;;;;;;4987478;28;20157;-62
2024/03/14 08:08:01;;;;;;;8.90;6.57;;;8.40;99.90;;;;;;4987944;28;20486;-62
2024/03/14 08:10:45;;;;;;;11.55;6.50;;;8.50;99.90;;;;;;4988200;28;20440;-62
2024/03/14 08:13:20;;;;;;;11.00;6.83;;;8.50;99.90;;;;;;4987808;28;20149;-63
2024/03/14 08:15:52;;;;;;;9.50;6.47;;;8.70;99.90;;;;;;4988401;28;20054;-60
2024/03/14 08:18:22;;;;;;;10.50;6.53;;;8.80;99.90;;;;;;4987858;28;20054;-60
2024/03/14 08:20:52;;;;;;;9.82;7.13;;;8.90;99.90;;;;;;4983866;28;20054;-61
2024/03/14 08:23:20;;;;;;;9.63;6.32;;;9.00;99.90;;;;;;4987872;28;20630;-60
2024/03/14 08:25:47;;;;;;;8.57;5.60;;;9.20;99.90;;;;;;4987283;28;20072;-60
2024/03/14 08:28:15;;;;;;;8.40;5.13;;;9.30;99.90;;;;;;4988066;28;20105;-60
2024/03/14 08:30:44;;;;;;;6.68;4.60;;;9.40;99.90;;;;;;4987822;28;20113;-60
2024/03/14 08:33:13;;;;;;;7.03;5.30;;;9.50;99.90;;;;;;4987314;28;20134;-60
2024/03/14 08:35:42;;;;;;;6.20;5.13;;;9.60;99.90;;;;;;4987033;28;20082;-60
2024/03/14 08:38:13;;;;;;;6.95;5.38;;;9.70;99.90;;;;;;4987494;28;20050;-61
2024/03/14 08:40:44;;;;;;;8.30;5.45;;;9.80;99.90;;;;;;4987873;28;20058;-60
2024/03/14 08:43:11;;;;;;;7.75;5.55;;;10.00;99.90;;;;;;4987549;28;20442;-62
2024/03/14 08:45:39;;;;;;;6.78;5.80;;;10.10;99.90;;;;;;4987536;28;20053;-60
2024/03/14 08:48:09;;;;;;;7.57;5.85;;;10.20;99.90;;;;;;4986321;28;20051;-60
2024/03/14 08:50:40;;;;;;;6.90;5.57;;;10.30;99.90;;;;;;4987510;28;20490;-60
2024/03/14 08:53:12;;;;;;;6.75;5.50;;;10.50;99.90;;;;;;4986941;28;20051;-60
2024/03/14 08:55:52;;;;;;;6.60;5.40;;;10.60;99.90;;;;;;4988111;28;20062;-60
2024/03/14 08:58:19;;;;;;;6.40;5.07;;;10.80;99.90;;;;;;4990788;28;20062;-60
2024/03/14 09:00:46;;;;;;;9.10;5.38;;;11.00;99.90;;;;;;4991299;28;20050;-60
2024/03/14 09:03:15;;;;;;;10.77;4.88;;;11.10;99.90;;;;;;4991244;28;20051;-60
2024/03/14 09:05:42;;;;;;;7.10;5.13;;;11.30;99.90;;;;;;4991627;28;20125;-60
2024/03/14 09:08:09;;;;;;;7.50;5.13;;;11.40;99.90;;;;;;4990979;28;20058;-60
2024/03/14 09:10:36;;;;;;;7.13;5.22;;;11.50;99.90;;;;;;4989160;28;20062;-60
2024/03/14 09:13:04;;;;;;;10.13;4.90;;;11.70;99.90;;;;;;4990876;28;20057;-60
2024/03/14 09:15:31;;;;;;;9.52;4.85;;;11.80;99.90;;;;;;4990636;28;20078;-60
2024/03/14 09:17:59;;;;;;;10.57;5.00;;;11.80;99.90;;;;;;4989991;28;20598;-60
2024/03/14 09:20:28;;;;;;;6.22;4.50;;;11.90;99.90;;;;;;4989190;28;20639;-60
2024/03/14 09:22:55;;;;;;;8.85;4.88;;;12.00;99.90;;;;;;4989435;28;20510;-60
2024/03/14 09:25:24;;;;;;;5.57;3.88;;;12.00;99.90;;;;;;4990185;28;20050;-60
2024/03/14 09:27:53;;;;;;;6.35;4.40;;;11.90;99.90;;;;;;4986085;28;20077;-60
2024/03/14 09:30:23;;;;;;;7.80;4.63;;;11.90;99.90;;;;;;4988625;28;20086;-60
2024/03/14 09:32:50;;;;;;;7.80;5.00;;;11.90;99.90;;;;;;4986206;28;20113;-60
2024/03/14 09:35:25;;;;;;;8.15;5.20;;;11.90;99.90;;;;;;4990277;28;20499;-60
2024/03/14 09:37:54;;;;;;;8.55;5.10;;;11.90;99.90;;;;;;4987616;28;20047;-61
2024/03/14 09:40:21;;;;;;;10.90;4.55;;;11.90;99.90;;;;;;4990012;28;20050;-60
2024/03/14 09:42:59;;;;;;;9.05;5.97;;;11.90;99.90;;;;;;4988307;28;20050;-60
2024/03/14 09:45:28;;;;;;;8.80;5.47;;;11.80;99.90;;;;;;4990034;28;20137;-60
2024/03/14 09:47:56;;;;;;;11.35;6.38;;;11.80;99.90;;;;;;4983616;28;20059;-60
2024/03/14 09:50:26;;;;;;;8.65;5.88;;;11.80;99.90;;;;;;4988538;28;20046;-59
2024/03/14 09:52:54;;;;;;;10.50;5.97;;;11.70;99.90;;;;;;4987749;28;20052;-60
2024/03/14 09:55:28;;;;;;;11.40;6.05;;;11.70;99.90;;;;;;4989922;28;20050;-60
2024/03/14 09:57:59;;;;;;;12.98;5.90;;;11.70;99.90;;;;;;4990058;28;20054;-60
2024/03/14 10:00:26;;;;;;;10.38;5.55;;;11.80;99.90;;;;;;4989609;28;20417;-60
2024/03/14 10:02:55;;;;;;;5.97;4.95;;;11.80;99.90;;;;;;4989982;28;20426;-60
2024/03/14 10:05:24;;;;;;;8.20;4.57;;;11.90;99.90;;;;;;4988240;28;20050;-60
2024/03/14 10:07:51;;;;;;;6.80;3.83;;;12.10;99.90;;;;;;4989512;28;20078;-60
2024/03/14 10:10:19;;;;;;;8.50;3.90;;;12.20;99.90;;;;;;4987784;28;20069;-61
2024/03/14 10:12:53;;;;;;;4.65;2.92;;;12.40;99.90;;;;;;4989935;28;20137;-60
2024/03/14 10:15:21;;;;;;;5.32;3.20;;;12.50;99.90;;;;;;4989565;28;20137;-60
2024/03/14 10:17:51;;;;;;;6.00;2.72;;;12.60;99.90;;;;;;4990181;28;20477;-61
2024/03/14 10:20:18;;;;;;;4.88;2.72;;;12.70;99.90;;;;;;4989412;28;20073;-60
2024/03/14 10:22:48;;;;;;;3.05;2.35;;;12.80;99.90;;;;;;4989420;28;20065;-61
2024/03/14 10:25:28;;;;;;;;;;;12.90;99.90;;;;;;4990113;28;20434;-60
2024/03/14 10:27:58;;;;;;;1.90;1.60;;;13.00;99.90;;;;;;4988214;28;20560;-61
2024/03/14 10:30:36;;;;;;;2.28;1.88;;;13.20;99.90;;;;;;4989270;28;20065;-61
2024/03/14 10:33:06;;;;;;;1.80;1.10;;;13.40;99.90;;;;;;4989405;28;20130;-61
2024/03/14 10:35:36;;;;;;;1.35;0.85;;;13.50;99.90;;;;;;4986004;28;20062;-61
2024/03/14 10:38:11;;;;;;;1.33;0.40;;;13.60;99.90;;;;;;4988411;28;20054;-61
2024/03/14 10:40:41;;;;;;;0.40;0.40;;;13.70;99.90;;;;;;4972116;28;20042;-60
2024/03/14 10:43:10;;;;;;;0.30;0.30;;;13.60;99.90;;;;;;4989560;28;20042;-61
2024/03/14 10:45:37;;;;;;;0.40;0.40;;;13.70;99.90;;;;;;4989045;28;20125;-60
2024/03/14 10:48:07;;;;;;;1.95;0.40;;;13.70;99.90;;;;;;4989677;28;20105;-60
2024/03/14 10:50:36;;;;;;;0.90;0.60;;;13.70;99.90;;;;;;4988376;28;20499;-60
2024/03/14 10:53:05;;;;;;;0.30;0.30;;;13.80;99.90;;;;;;4988579;28;20061;-61
2024/03/14 10:55:34;;;;;;;0.68;0.40;;;14.00;99.90;;;;;;4989025;28;20054;-60
2024/03/14 10:58:04;;;;;;;0.50;0.50;;;14.10;99.90;;;;;;4988949;28;20181;-60
2024/03/14 11:00:34;;;;;;;2.03;0.60;;;14.30;99.90;;;;;;4988574;28;20132;-61
2024/03/14 11:03:03;;;;;;;0.37;0.37;;;14.50;99.90;;;;;;4987805;28;20046;-60
2024/03/14 11:05:31;;;;;;;0.70;0.50;;;14.70;99.90;;;;;;4986392;28;20714;-61
2024/03/14 11:08:00;;;;;;;0.55;0.45;;;14.90;99.90;;;;;;4988721;28;20043;-60
2024/03/14 11:10:28;;;;;;;0.60;0.60;;;14.90;99.90;;;;;;4986852;28;20050;-61
2024/03/14 11:12:56;;;;;;;1.25;0.60;;;15.00;99.90;;;;;;4988815;28;20046;-60
2024/03/14 11:15:25;;;;;;;0.73;0.60;;;15.10;99.90;;;;;;4988490;28;20054;-61
2024/03/14 11:17:59;;;;;;;0.52;0.50;;;15.10;99.90;;;;;;4988445;28;20085;-61
2024/03/14 11:20:32;;;;;;;3.75;0.70;;;15.10;99.90;;;;;;4986241;28;20130;-61
2024/03/14 11:23:03;;;;;;;1.63;0.40;;;15.20;99.90;;;;;;4988661;28;20046;-61
2024/03/14 11:25:35;;;;;;;4.38;0.60;;;15.20;99.90;;;;;;4988170;28;20082;-61
2024/03/14 11:28:04;;;;;;;3.28;0.50;;;15.20;99.90;;;;;;4984861;28;20078;-61
2024/03/14 11:30:32;;;;;;;1.50;0.40;;;15.20;99.90;;;;;;4987120;28;20573;-61
2024/03/14 11:33:06;;;;;;;0.52;0.45;;;15.20;99.90;;;;;;4988101;28;20077;-61
2024/03/14 11:35:36;;;;;;;1.30;0.40;;;15.20;99.90;;;;;;4988053;28;20050;-61
2024/03/14 11:38:23;;;;;;;0.90;0.37;;;15.20;99.90;;;;;;4988442;28;20046;-61
2024/03/14 11:40:52;;;;;;;1.38;0.50;;;15.30;99.90;;;;;;4987909;28;20701;-61
2024/03/14 11:43:23;;;;;;;0.60;0.60;;;15.40;99.90;;;;;;4979794;28;20042;-61
2024/03/14 11:46:01;;;;;;;1.45;0.70;;;15.30;99.90;;;;;;4984808;28;20050;-61
2024/03/14 11:48:28;;;;;;;0.98;0.70;;;15.30;99.90;;;;;;4985874;28;20061;-61
2024/03/14 11:51:01;;;;;;;0.88;0.50;;;15.20;99.90;;;;;;4987973;28;20051;-61
2024/03/14 11:53:29;;;;;;;1.10;0.60;;;15.20;99.90;;;;;;4986333;28;20058;-61
2024/03/14 11:55:56;;;;;;;0.88;0.52;;;15.20;99.90;;;;;;4988037;28;20046;-60
2024/03/14 11:58:38;;;;;;;1.52;0.63;;;15.30;99.90;;;;;;4987905;28;20050;-61
2024/03/14 12:01:06;;;;;;;2.30;0.90;;;15.30;99.90;;;;;;4988354;28;20042;-61
2024/03/14 12:03:33;;;;;;;0.75;0.60;;;15.20;99.90;;;;;;4987390;28;20125;-60
2024/03/14 12:06:05;;;;;;;1.52;0.65;;;15.30;99.90;;;;;;4988258;28;20085;-61
2024/03/14 12:08:36;;;;;;;1.67;0.70;;;15.40;99.90;;;;;;4987591;28;20046;-61
2024/03/14 12:11:04;;;;;;;4.28;0.90;;;15.50;99.90;;;;;;4986681;28;20136;-61
2024/03/14 12:13:32;;;;;;;1.60;0.90;;;15.50;99.90;;;;;;4987531;28;20050;-61
2024/03/14 12:16:03;;;;;;;1.38;0.70;;;15.50;99.90;;;;;;4987749;28;20094;-61
2024/03/14 12:18:31;;;;;;;1.85;0.80;;;15.60;99.90;;;;;;4987796;28;20149;-61
2024/03/14 12:21:00;;;;;;;1.13;0.90;;;15.50;99.90;;;;;;4987526;28;20464;-61
2024/03/14 12:23:27;;;;;;;1.27;0.80;;;15.50;99.90;;;;;;4987596;28;20057;-61
2024/03/14 12:26:01;;;;;;;4.30;1.10;;;15.60;99.90;;;;;;4985673;28;20133;-61
2024/03/14 12:28:31;;;;;;;1.02;0.77;;;15.60;99.90;;;;;;4985569;28;20043;-61
2024/03/14 12:31:00;;;;;;;1.35;0.80;;;15.40;99.90;;;;;;4987474;28;20050;-64
2024/03/14 12:33:27;;;;;;;1.40;0.75;;;15.40;99.90;;;;;;4991595;28;20117;-64
2024/03/14 12:35:54;;;;;;;1.75;0.98;;;15.30;99.90;;;;;;4991975;28;20054;-64
2024/03/14 12:38:27;;;;;;;2.17;0.93;;;15.40;99.90;;;;;;4988712;28;20633;-64
2024/03/14 12:40:58;;;;;;;1.20;0.80;;;15.40;99.90;;;;;;4991448;28;20446;-64
2024/03/14 12:43:27;;;;;;;2.95;0.77;;;15.60;99.90;;;;;;4990974;28;20042;-64
2024/03/14 12:45:54;;;;;;;2.47;0.90;;;15.70;99.90;;;;;;4991831;28;20046;-64
2024/03/14 12:48:21;;;;;;;1.67;0.80;;;15.70;99.90;;;;;;4988504;28;20479;-63
2024/03/14 12:50:49;;;;;;;2.60;0.90;;;15.80;99.90;;;;;;4989394;28;20054;-64
2024/03/14 12:53:22;;;;;;;2.60;0.82;;;15.80;99.90;;;;;;4989221;28;20054;-64
2024/03/14 12:55:53;;;;;;;2.28;1.15;;;15.80;99.90;;;;;;4988207;28;20491;-65
2024/03/14 12:58:21;;;;;;;1.23;0.85;;;15.90;99.90;;;;;;4991424;28;20466;-64
2024/03/14 13:00:48;;;;;;;2.40;1.00;;;15.90;99.90;;;;;;4989447;28;20495;-64